Time;durP1;ratioP1;P1;durP2;ratioP2;P2;SDS_P1;SDS_P2;PMS_P1;PMS_P2;Temp;Humidity;BMP_temperature;BMP_pressure;BME280_temperature;BME280_humidity;BME280_pressure;Samples;Min_cycle;Max_cycle;Signal;HPM_P1;HPM_P2
2023/05/29 00:00:18;;;;;;;0.70;0.70;;;17.30;97.70;;;;;;5034092;28;20204;-64
2023/05/29 00:02:46;;;;;;;0.70;0.60;;;17.20;97.40;;;;;;5016152;28;20201;-63
2023/05/29 00:05:16;;;;;;;0.77;0.60;;;17.20;97.30;;;;;;5014165;28;20212;-64
2023/05/29 00:07:44;;;;;;;0.60;0.50;;;17.20;96.90;;;;;;5027433;28;20220;-65
2023/05/29 00:10:12;;;;;;;0.60;0.50;;;17.20;97.00;;;;;;5016565;28;20221;-64
2023/05/29 00:12:40;;;;;;;0.60;0.45;;;17.30;98.30;;;;;;5019949;28;20205;-64
2023/05/29 00:15:12;;;;;;;1.33;1.10;;;17.30;97.10;;;;;;5018865;28;20208;-65
2023/05/29 00:17:40;;;;;;;0.77;0.60;;;17.30;97.70;;;;;;5018910;28;20232;-64
2023/05/29 00:20:10;;;;;;;0.75;0.70;;;17.30;97.50;;;;;;5016965;28;20262;-65
2023/05/29 00:22:38;;;;;;;0.73;0.50;;;17.30;97.70;;;;;;5028581;28;20205;-65
2023/05/29 00:25:07;;;;;;;0.98;0.65;;;17.20;97.50;;;;;;5020823;28;20209;-65
2023/05/29 00:27:35;;;;;;;0.60;0.50;;;17.20;97.70;;;;;;5021837;28;20656;-64
2023/05/29 00:30:04;;;;;;;0.65;0.47;;;17.10;97.40;;;;;;5033274;28;20212;-64
2023/05/29 00:32:34;;;;;;;1.70;1.08;;;17.10;97.70;;;;;;5018031;28;20284;-64
2023/05/29 00:35:02;;;;;;;1.10;1.00;;;17.10;98.00;;;;;;5013902;28;20600;-64
2023/05/29 00:37:30;;;;;;;0.60;0.40;;;17.10;98.60;;;;;;5014268;28;20604;-65
2023/05/29 00:39:58;;;;;;;0.65;0.60;;;17.10;98.50;;;;;;5013635;28;20680;-64
2023/05/29 00:42:26;;;;;;;0.75;0.52;;;17.10;98.20;;;;;;5014063;28;20580;-64
2023/05/29 00:44:54;;;;;;;0.60;0.40;;;17.10;98.60;;;;;;5015049;28;20275;-65
2023/05/29 00:47:22;;;;;;;0.77;0.50;;;17.10;99.60;;;;;;5013852;28;20692;-65
2023/05/29 00:49:53;;;;;;;0.63;0.63;;;17.10;99.90;;;;;;5013197;28;20267;-64
2023/05/29 00:52:21;;;;;;;0.70;0.60;;;17.10;99.90;;;;;;5016239;28;20208;-63
2023/05/29 00:54:49;;;;;;;0.60;0.40;;;17.10;99.90;;;;;;5015208;28;20615;-63
2023/05/29 00:57:18;;;;;;;0.80;0.60;;;17.10;99.80;;;;;;5015709;28;20244;-63
2023/05/29 00:59:47;;;;;;;1.85;0.93;;;17.20;99.90;;;;;;5023677;28;20201;-63
2023/05/29 01:02:18;;;;;;;2.15;0.80;;;17.30;99.90;;;;;;5013803;28;20209;-62
2023/05/29 01:04:46;;;;;;;0.88;0.75;;;17.20;99.90;;;;;;5015048;28;20205;-63
2023/05/29 01:07:16;;;;;;;1.52;1.00;;;17.20;99.90;;;;;;5021628;28;20275;-62
2023/05/29 01:09:43;;;;;;;0.77;0.50;;;17.20;99.90;;;;;;5019250;28;20217;-63
2023/05/29 01:12:22;;;;;;;0.68;0.52;;;17.20;99.90;;;;;;5013779;28;20205;-62
2023/05/29 01:15:05;;;;;;;1.35;0.90;;;17.10;99.90;;;;;;5014966;28;20216;-62
2023/05/29 01:17:41;;;;;;;1.15;0.70;;;17.10;99.90;;;;;;5013515;28;20669;-62
2023/05/29 01:20:20;;;;;;;0.77;0.77;;;17.10;99.90;;;;;;5013916;28;20243;-62
2023/05/29 01:23:17;;;;;;;0.70;0.50;;;17.10;99.90;;;;;;5015460;28;20342;-62
2023/05/29 01:26:08;;;;;;;0.70;0.52;;;17.00;99.90;;;;;;5014719;28;20220;-63
2023/05/29 01:28:42;;;;;;;0.70;0.50;;;17.00;99.90;;;;;;5019843;28;20860;-62
2023/05/29 01:31:12;;;;;;;1.80;0.80;;;17.00;99.90;;;;;;5021549;28;20209;-63
2023/05/29 01:33:41;;;;;;;0.88;0.82;;;16.90;99.90;;;;;;5013300;28;20201;-63
2023/05/29 01:36:10;;;;;;;0.80;0.60;;;16.90;99.90;;;;;;5013165;28;20283;-63
2023/05/29 01:38:38;;;;;;;1.00;0.68;;;16.80;99.90;;;;;;5013856;28;20559;-62
2023/05/29 01:41:07;;;;;;;0.70;0.50;;;16.80;99.90;;;;;;5014146;28;20239;-62
2023/05/29 01:43:35;;;;;;;1.33;1.23;;;16.80;99.90;;;;;;5017850;28;20205;-63
2023/05/29 01:46:05;;;;;;;1.02;0.90;;;16.80;99.90;;;;;;5014440;28;20228;-62
2023/05/29 01:48:33;;;;;;;1.13;0.88;;;16.70;99.90;;;;;;5013480;28;20679;-62
2023/05/29 01:51:01;;;;;;;0.80;0.60;;;16.80;99.90;;;;;;5021390;28;20276;-61
2023/05/29 01:53:29;;;;;;;0.60;0.40;;;16.70;99.90;;;;;;5029293;28;20201;-63
2023/05/29 01:55:57;;;;;;;1.33;0.70;;;16.70;99.90;;;;;;5026773;28;20278;-64
2023/05/29 01:58:26;;;;;;;5.65;0.73;;;16.70;99.90;;;;;;5025535;28;20584;-63
2023/05/29 02:00:55;;;;;;;0.60;0.57;;;16.60;99.90;;;;;;5026634;28;20204;-63
2023/05/29 02:03:28;;;;;;;0.60;0.50;;;16.70;99.90;;;;;;5028547;28;20201;-63
2023/05/29 02:05:57;;;;;;;0.93;0.73;;;16.70;99.90;;;;;;5026600;28;20236;-64
2023/05/29 02:08:25;;;;;;;0.60;0.47;;;16.70;99.90;;;;;;5027621;28;20232;-63
2023/05/29 02:10:54;;;;;;;0.82;0.60;;;16.70;99.90;;;;;;5026459;28;20847;-63
2023/05/29 02:13:22;;;;;;;1.15;0.90;;;16.60;99.90;;;;;;5024840;28;20215;-64
2023/05/29 02:15:50;;;;;;;0.70;0.50;;;16.70;99.90;;;;;;5026332;28;20225;-63
2023/05/29 02:18:18;;;;;;;0.60;0.47;;;16.70;99.90;;;;;;5026552;28;20610;-63
2023/05/29 02:20:48;;;;;;;0.70;0.65;;;16.70;99.90;;;;;;5024660;28;20204;-63
2023/05/29 02:23:16;;;;;;;0.80;0.80;;;16.70;99.90;;;;;;5028351;28;20205;-63
2023/05/29 02:25:44;;;;;;;1.02;0.60;;;16.60;99.90;;;;;;5023053;28;20258;-62
2023/05/29 02:28:12;;;;;;;0.60;0.40;;;16.50;99.90;;;;;;5024124;28;20228;-62
2023/05/29 02:30:40;;;;;;;1.35;0.68;;;16.50;99.90;;;;;;5019475;28;20201;-62
2023/05/29 02:33:08;;;;;;;0.65;0.55;;;16.50;99.90;;;;;;5021544;28;20679;-62
2023/05/29 02:35:36;;;;;;;0.60;0.43;;;16.50;99.90;;;;;;5026420;28;20667;-63
2023/05/29 02:38:05;;;;;;;0.73;0.63;;;16.40;99.90;;;;;;5016254;28;20208;-63
2023/05/29 02:40:33;;;;;;;0.68;0.60;;;16.30;99.90;;;;;;5025592;28;20205;-62
2023/05/29 02:43:01;;;;;;;0.80;0.80;;;16.20;99.90;;;;;;5025027;28;20212;-62
2023/05/29 02:45:29;;;;;;;0.60;0.60;;;16.10;99.90;;;;;;5027052;28;20200;-63
2023/05/29 02:47:57;;;;;;;0.70;0.50;;;16.10;99.90;;;;;;5024108;28;20220;-64
2023/05/29 02:50:25;;;;;;;0.70;0.60;;;16.00;99.90;;;;;;5013467;28;20208;-63
2023/05/29 02:52:53;;;;;;;0.82;0.63;;;16.00;99.90;;;;;;5024708;28;20208;-63
2023/05/29 02:55:22;;;;;;;1.17;1.08;;;16.00;99.90;;;;;;5016703;28;20263;-63
2023/05/29 02:57:52;;;;;;;1.05;0.70;;;15.90;99.90;;;;;;5024150;28;20223;-63
2023/05/29 03:00:21;;;;;;;1.05;0.88;;;15.90;99.90;;;;;;5014823;28;20201;-64
2023/05/29 03:02:49;;;;;;;1.00;0.90;;;15.70;99.90;;;;;;5019840;28;20217;-63
2023/05/29 03:05:17;;;;;;;1.02;0.60;;;15.70;99.90;;;;;;5025814;28;20205;-63
2023/05/29 03:07:45;;;;;;;0.60;0.40;;;15.60;99.90;;;;;;5019069;28;20237;-63
2023/05/29 03:10:17;;;;;;;0.90;0.60;;;15.70;99.90;;;;;;5012474;28;20205;-63
2023/05/29 03:12:47;;;;;;;1.80;1.00;;;15.70;99.90;;;;;;5018562;28;20213;-64
2023/05/29 03:15:15;;;;;;;0.60;0.40;;;15.60;99.90;;;;;;5023303;28;21751;-64
2023/05/29 03:17:43;;;;;;;0.90;0.65;;;15.50;99.90;;;;;;5018347;28;20284;-64
2023/05/29 03:20:13;;;;;;;1.13;0.95;;;15.50;99.90;;;;;;5025728;28;20259;-64
2023/05/29 03:22:41;;;;;;;0.60;0.50;;;15.30;99.90;;;;;;5026935;28;20239;-64
2023/05/29 03:25:10;;;;;;;1.45;0.65;;;15.30;99.90;;;;;;5031520;28;20268;-63
2023/05/29 03:27:38;;;;;;;1.08;0.98;;;15.10;99.90;;;;;;5030700;28;20247;-64
2023/05/29 03:30:09;;;;;;;0.80;0.60;;;15.20;99.90;;;;;;5031261;28;20212;-64
2023/05/29 03:32:37;;;;;;;0.93;0.63;;;15.10;99.90;;;;;;5024765;28;20676;-64
2023/05/29 03:35:05;;;;;;;0.80;0.65;;;15.10;99.90;;;;;;5024497;28;20672;-64
2023/05/29 03:37:33;;;;;;;2.00;0.60;;;14.90;99.90;;;;;;5023455;28;20291;-63
2023/05/29 03:40:01;;;;;;;1.02;0.80;;;14.80;99.90;;;;;;5021224;28;20209;-64
2023/05/29 03:42:30;;;;;;;0.90;0.90;;;14.80;99.90;;;;;;5029601;28;20263;-64
2023/05/29 03:44:59;;;;;;;0.90;0.80;;;14.70;99.90;;;;;;5023964;28;20742;-63
2023/05/29 03:47:28;;;;;;;0.70;0.60;;;14.60;99.90;;;;;;5026673;28;20228;-63
2023/05/29 03:49:56;;;;;;;0.90;0.90;;;14.70;99.90;;;;;;5020917;28;20223;-64
2023/05/29 03:52:24;;;;;;;1.55;0.85;;;14.80;99.90;;;;;;5024412;28;20200;-64
2023/05/29 03:54:52;;;;;;;0.70;0.68;;;14.80;99.90;;;;;;5021301;28;20205;-64
2023/05/29 03:57:20;;;;;;;1.88;0.63;;;14.80;99.90;;;;;;5027799;28;20225;-64
2023/05/29 03:59:47;;;;;;;0.90;0.50;;;14.80;99.90;;;;;;5033281;28;20214;-64
2023/05/29 04:02:15;;;;;;;0.70;0.60;;;14.80;99.90;;;;;;5025113;28;20745;-63
2023/05/29 04:04:48;;;;;;;1.00;0.90;;;14.90;99.90;;;;;;5025831;28;20246;-64
2023/05/29 04:07:18;;;;;;;1.52;0.75;;;14.90;99.90;;;;;;5027005;28;20581;-64
2023/05/29 04:09:46;;;;;;;1.13;1.02;;;14.90;99.90;;;;;;5031170;28;20597;-64
2023/05/29 04:12:15;;;;;;;0.60;0.50;;;14.90;99.90;;;;;;5031217;28;20232;-63
2023/05/29 04:14:43;;;;;;;1.30;1.15;;;15.00;99.90;;;;;;5027901;28;20689;-64
2023/05/29 04:17:11;;;;;;;0.80;0.75;;;15.10;99.90;;;;;;5019495;28;20789;-64
2023/05/29 04:19:39;;;;;;;0.70;0.60;;;15.10;99.90;;;;;;5035009;28;20235;-64
2023/05/29 04:22:08;;;;;;;0.68;0.52;;;15.10;99.90;;;;;;5036608;28;20209;-63
2023/05/29 04:24:36;;;;;;;0.70;0.60;;;15.10;99.90;;;;;;5028536;28;20204;-64
2023/05/29 04:27:04;;;;;;;0.80;0.65;;;15.10;99.90;;;;;;5025981;28;20224;-62
2023/05/29 04:29:34;;;;;;;1.00;0.85;;;15.10;99.90;;;;;;5021584;28;20688;-64
2023/05/29 04:32:03;;;;;;;0.90;0.57;;;15.10;99.90;;;;;;5025564;28;20213;-64
2023/05/29 04:34:31;;;;;;;0.80;0.80;;;15.10;99.90;;;;;;5028017;28;20258;-65
2023/05/29 04:36:59;;;;;;;0.90;0.60;;;15.10;99.90;;;;;;5027572;28;20288;-63
2023/05/29 04:39:28;;;;;;;1.02;0.73;;;15.10;99.90;;;;;;5028978;28;20193;-63
2023/05/29 04:41:58;;;;;;;0.70;0.50;;;15.20;99.90;;;;;;5027510;28;20208;-63
2023/05/29 04:44:26;;;;;;;0.90;0.77;;;15.20;99.90;;;;;;5025661;28;20211;-62
2023/05/29 04:46:54;;;;;;;1.52;0.65;;;15.30;99.90;;;;;;5022171;28;20224;-62
2023/05/29 04:49:22;;;;;;;0.90;0.70;;;15.20;99.90;;;;;;5026307;28;20224;-62
2023/05/29 04:51:52;;;;;;;1.40;0.65;;;15.20;99.90;;;;;;5031513;28;20220;-63
2023/05/29 04:54:20;;;;;;;1.52;0.80;;;15.20;99.90;;;;;;5023345;28;20213;-64
2023/05/29 04:56:49;;;;;;;0.75;0.75;;;15.40;99.90;;;;;;5031795;28;20225;-63
2023/05/29 04:59:17;;;;;;;0.80;0.60;;;15.40;99.90;;;;;;5027127;28;20206;-62
2023/05/29 05:01:47;;;;;;;0.63;0.50;;;15.50;99.90;;;;;;5022694;28;20212;-64
2023/05/29 05:04:15;;;;;;;0.60;0.55;;;15.50;99.90;;;;;;5027283;28;20209;-63
2023/05/29 05:06:43;;;;;;;1.08;0.70;;;15.60;99.90;;;;;;5026397;28;20223;-63
2023/05/29 05:09:12;;;;;;;0.80;0.65;;;15.60;99.90;;;;;;5025596;28;20221;-63
2023/05/29 05:11:40;;;;;;;0.90;0.50;;;15.70;99.90;;;;;;5019586;28;20210;-63
2023/05/29 05:14:09;;;;;;;0.80;0.52;;;15.80;99.90;;;;;;5027425;28;20223;-63
2023/05/29 05:16:37;;;;;;;0.70;0.65;;;15.80;99.90;;;;;;5021656;28;20232;-64
2023/05/29 05:19:05;;;;;;;0.85;0.50;;;15.80;99.90;;;;;;5021587;28;20577;-63
2023/05/29 05:21:33;;;;;;;1.48;1.20;;;15.80;99.90;;;;;;5028088;28;20287;-64
2023/05/29 05:24:01;;;;;;;1.20;0.98;;;15.90;99.90;;;;;;5027964;28;20579;-64
2023/05/29 05:26:29;;;;;;;1.05;0.63;;;16.00;99.90;;;;;;5025346;28;20228;-62
2023/05/29 05:28:57;;;;;;;0.70;0.60;;;16.10;99.90;;;;;;5031698;28;20615;-63
2023/05/29 05:31:26;;;;;;;0.73;0.60;;;16.20;99.90;;;;;;5028966;28;20296;-63
2023/05/29 05:33:54;;;;;;;0.90;0.90;;;16.30;99.90;;;;;;5027055;28;20239;-63
2023/05/29 05:36:22;;;;;;;0.70;0.60;;;16.40;99.90;;;;;;5024048;28;20224;-64
2023/05/29 05:38:50;;;;;;;0.70;0.70;;;16.50;99.90;;;;;;5026062;28;20612;-63
2023/05/29 05:41:18;;;;;;;0.80;0.50;;;16.60;99.90;;;;;;5024588;28;21184;-64
2023/05/29 05:43:46;;;;;;;3.22;1.05;;;16.70;99.90;;;;;;5027011;28;20208;-62
2023/05/29 05:46:15;;;;;;;0.70;0.60;;;16.70;99.90;;;;;;5025096;28;20738;-64
2023/05/29 05:48:44;;;;;;;1.45;0.85;;;16.80;99.90;;;;;;5021635;28;20657;-64
2023/05/29 05:51:12;;;;;;;1.90;0.80;;;16.90;99.90;;;;;;5017594;28;20715;-64
2023/05/29 05:53:40;;;;;;;0.80;0.70;;;17.00;99.90;;;;;;5024807;28;20204;-65
2023/05/29 05:56:08;;;;;;;2.17;0.60;;;17.10;99.90;;;;;;5015584;28;20235;-64
2023/05/29 05:58:36;;;;;;;0.80;0.80;;;17.20;99.90;;;;;;5019861;28;20507;-64
2023/05/29 06:01:04;;;;;;;0.98;0.60;;;17.30;99.90;;;;;;5023416;28;20284;-63
2023/05/29 06:03:33;;;;;;;0.63;0.50;;;17.30;99.90;;;;;;5011113;28;20216;-63
2023/05/29 06:06:03;;;;;;;1.13;1.02;;;17.30;99.90;;;;;;5013939;28;20312;-64
2023/05/29 06:08:31;;;;;;;1.00;0.88;;;17.40;99.90;;;;;;5015368;28;20848;-64
2023/05/29 06:10:59;;;;;;;0.60;0.50;;;17.50;99.90;;;;;;5024557;28;20212;-65
2023/05/29 06:13:27;;;;;;;1.10;1.00;;;17.50;99.90;;;;;;5023522;28;20209;-63
2023/05/29 06:15:55;;;;;;;0.95;0.80;;;17.60;99.90;;;;;;5018097;28;20236;-63
2023/05/29 06:18:23;;;;;;;0.88;0.65;;;17.60;99.90;;;;;;5012976;28;20280;-63
2023/05/29 06:20:51;;;;;;;0.75;0.57;;;17.60;99.90;;;;;;5022978;28;20752;-64
2023/05/29 06:23:21;;;;;;;0.70;0.50;;;17.70;99.90;;;;;;5013426;28;20271;-63
2023/05/29 06:25:49;;;;;;;1.20;1.20;;;17.70;99.90;;;;;;5017963;28;20208;-63
2023/05/29 06:28:17;;;;;;;0.85;0.68;;;17.80;99.90;;;;;;5020634;28;20209;-65
2023/05/29 06:30:44;;;;;;;0.63;0.50;;;17.90;99.90;;;;;;5018225;28;20637;-63
2023/05/29 06:33:13;;;;;;;1.13;0.80;;;18.00;99.90;;;;;;5019502;28;20300;-63
2023/05/29 06:35:41;;;;;;;0.68;0.68;;;18.10;99.90;;;;;;5029356;28;20211;-63
2023/05/29 06:38:09;;;;;;;1.98;0.70;;;18.20;99.90;;;;;;5030562;28;20212;-63
2023/05/29 06:40:38;;;;;;;0.60;0.50;;;18.30;99.90;;;;;;5030734;28;20208;-64
2023/05/29 06:43:06;;;;;;;0.98;0.63;;;18.40;99.90;;;;;;5030499;28;20679;-63
2023/05/29 06:45:34;;;;;;;1.67;0.60;;;18.50;99.90;;;;;;5022738;28;20207;-63
2023/05/29 06:48:02;;;;;;;0.70;0.60;;;18.60;99.90;;;;;;5033251;28;20214;-64
2023/05/29 06:50:31;;;;;;;1.30;0.93;;;18.70;99.90;;;;;;5034085;28;20220;-63
2023/05/29 06:52:59;;;;;;;0.60;0.40;;;18.80;99.90;;;;;;5034250;28;20225;-63
2023/05/29 06:55:27;;;;;;;1.55;0.70;;;18.90;99.90;;;;;;5034164;28;20750;-63
2023/05/29 06:57:56;;;;;;;0.60;0.40;;;19.00;99.90;;;;;;5034318;28;20225;-63
2023/05/29 07:00:24;;;;;;;0.70;0.50;;;19.00;99.90;;;;;;5034224;28;20211;-64
2023/05/29 07:02:52;;;;;;;0.82;0.65;;;19.20;99.90;;;;;;5034422;28;20248;-63
2023/05/29 07:05:20;;;;;;;0.70;0.55;;;19.30;99.90;;;;;;5034014;28;20208;-64
2023/05/29 07:07:48;;;;;;;0.70;0.60;;;19.40;99.90;;;;;;5034031;28;20724;-63
2023/05/29 07:10:16;;;;;;;0.63;0.55;;;19.40;99.90;;;;;;5034021;28;20267;-63
2023/05/29 07:12:44;;;;;;;0.80;0.60;;;19.50;99.90;;;;;;5034002;28;20292;-63
2023/05/29 07:15:13;;;;;;;0.80;0.70;;;19.60;99.90;;;;;;5034160;28;20256;-64
2023/05/29 07:17:41;;;;;;;1.38;1.17;;;19.70;99.90;;;;;;5033816;28;20241;-64
2023/05/29 07:20:10;;;;;;;0.70;0.68;;;19.70;99.90;;;;;;5033794;28;20245;-65
2023/05/29 07:22:38;;;;;;;0.77;0.75;;;19.80;99.90;;;;;;5034069;28;20544;-63
2023/05/29 07:25:07;;;;;;;1.40;0.75;;;19.90;99.90;;;;;;5034022;28;20560;-64
2023/05/29 07:27:35;;;;;;;0.60;0.50;;;19.90;99.90;;;;;;5033715;28;20287;-63
2023/05/29 07:30:04;;;;;;;1.83;1.65;;;20.00;99.90;;;;;;5033682;28;20261;-63
2023/05/29 07:32:34;;;;;;;0.60;0.50;;;20.10;99.90;;;;;;5034098;28;20206;-65
2023/05/29 07:35:02;;;;;;;0.80;0.73;;;20.10;99.90;;;;;;5033713;28;20285;-63
2023/05/29 07:37:30;;;;;;;1.20;0.50;;;20.20;99.90;;;;;;5033259;28;20387;-63
2023/05/29 07:39:58;;;;;;;0.68;0.57;;;20.30;99.90;;;;;;5033726;28;20206;-63
2023/05/29 07:42:26;;;;;;;0.80;0.50;;;20.40;99.90;;;;;;5033436;28;20213;-63
2023/05/29 07:44:54;;;;;;;1.17;0.70;;;20.50;99.90;;;;;;5033344;28;20214;-63
2023/05/29 07:47:22;;;;;;;0.70;0.60;;;20.50;99.90;;;;;;5033037;28;20241;-64
2023/05/29 07:49:51;;;;;;;1.35;1.25;;;20.70;99.90;;;;;;5033429;28;20222;-64
2023/05/29 07:52:20;;;;;;;0.60;0.60;;;20.70;99.90;;;;;;5033284;28;20210;-64
2023/05/29 07:54:47;;;;;;;0.70;0.50;;;20.80;99.90;;;;;;5033069;28;20210;-64
2023/05/29 07:57:15;;;;;;;0.82;0.82;;;20.90;99.90;;;;;;5032921;28;20230;-64
2023/05/29 07:59:43;;;;;;;0.60;0.50;;;21.00;99.90;;;;;;5032154;28;20202;-64
2023/05/29 08:02:11;;;;;;;0.65;0.55;;;21.10;99.90;;;;;;5033160;28;20213;-65
2023/05/29 08:04:40;;;;;;;0.60;0.50;;;21.30;99.90;;;;;;5033222;28;20202;-64
2023/05/29 08:07:10;;;;;;;0.60;0.50;;;21.40;99.90;;;;;;5032946;28;20233;-64
2023/05/29 08:09:37;;;;;;;0.65;0.47;;;21.50;99.90;;;;;;5033143;28;20206;-64
2023/05/29 08:12:06;;;;;;;0.70;0.50;;;21.70;99.90;;;;;;5032693;28;20267;-63
2023/05/29 08:14:34;;;;;;;0.88;0.50;;;21.70;99.90;;;;;;5032813;28;20478;-64
2023/05/29 08:17:02;;;;;;;0.60;0.40;;;22.00;99.90;;;;;;5032699;28;20245;-64
2023/05/29 08:19:30;;;;;;;0.70;0.50;;;22.20;99.90;;;;;;5032741;28;20210;-64
2023/05/29 08:21:58;;;;;;;0.60;0.40;;;22.30;99.90;;;;;;5032782;28;20213;-64
2023/05/29 08:24:27;;;;;;;1.90;0.85;;;22.40;99.90;;;;;;5032492;28;20215;-63
2023/05/29 08:26:55;;;;;;;0.77;0.60;;;22.40;99.90;;;;;;5033234;28;20242;-64
2023/05/29 08:29:23;;;;;;;1.08;0.65;;;22.40;99.90;;;;;;5032422;28;20225;-64
2023/05/29 08:31:51;;;;;;;0.70;0.50;;;22.60;99.90;;;;;;5032568;28;20226;-64
2023/05/29 08:34:20;;;;;;;0.88;0.57;;;22.60;99.90;;;;;;5032315;28;20591;-64
2023/05/29 08:36:51;;;;;;;1.23;0.50;;;22.60;99.90;;;;;;5032603;28;20230;-64
2023/05/29 08:39:19;;;;;;;0.60;0.40;;;22.80;99.90;;;;;;5032339;28;20218;-64
2023/05/29 08:41:56;;;;;;;0.77;0.70;;;22.90;99.90;;;;;;5032303;28;20339;-64
2023/05/29 08:44:30;;;;;;;1.65;0.50;;;23.00;99.20;;;;;;5029051;28;20688;-64
2023/05/29 08:47:03;;;;;;;1.02;0.73;;;23.30;99.90;;;;;;5032380;28;20732;-64
2023/05/29 08:49:43;;;;;;;0.70;0.55;;;23.40;99.40;;;;;;5032265;28;20207;-64
2023/05/29 08:52:17;;;;;;;0.93;0.70;;;23.70;98.70;;;;;;5032096;28;20245;-64
2023/05/29 08:54:45;;;;;;;1.60;1.20;;;23.80;98.70;;;;;;5024760;28;20203;-64
2023/05/29 08:57:15;;;;;;;0.65;0.57;;;23.90;98.90;;;;;;5032026;28;20238;-64
2023/05/29 08:59:44;;;;;;;1.23;0.85;;;24.10;97.50;;;;;;5022045;28;20203;-63
2023/05/29 09:02:12;;;;;;;0.90;0.50;;;24.00;97.10;;;;;;5013036;28;20204;-64
2023/05/29 09:04:44;;;;;;;0.70;0.52;;;24.10;96.20;;;;;;5019278;28;20213;-65
2023/05/29 09:07:14;;;;;;;0.60;0.40;;;24.10;95.60;;;;;;5020920;28;20297;-67
2023/05/29 09:09:42;;;;;;;0.70;0.50;;;24.10;95.50;;;;;;5015684;28;20210;-64
2023/05/29 09:12:10;;;;;;;0.60;0.40;;;24.20;96.10;;;;;;5019096;28;20223;-65
2023/05/29 09:14:42;;;;;;;1.23;0.80;;;24.20;95.90;;;;;;5013975;28;20208;-64
2023/05/29 09:17:11;;;;;;;0.85;0.60;;;24.30;96.50;;;;;;5015517;28;20243;-64
2023/05/29 09:19:41;;;;;;;0.60;0.40;;;24.40;93.60;;;;;;5025054;28;20208;-64
2023/05/29 09:22:13;;;;;;;0.60;0.40;;;24.50;93.20;;;;;;5012836;28;20209;-63
2023/05/29 09:24:43;;;;;;;0.70;0.65;;;24.70;92.70;;;;;;5015358;28;20216;-64
2023/05/29 09:27:12;;;;;;;1.50;0.60;;;24.90;93.00;;;;;;5012209;28;20223;-65
2023/05/29 09:29:45;;;;;;;0.80;0.70;;;25.10;92.40;;;;;;5022724;28;20579;-65
2023/05/29 09:32:15;;;;;;;0.70;0.57;;;25.10;92.40;;;;;;5015347;28;20605;-63
2023/05/29 09:34:44;;;;;;;1.90;0.90;;;25.30;91.50;;;;;;5018907;28;20211;-65
2023/05/29 09:37:13;;;;;;;0.77;0.63;;;25.40;92.60;;;;;;5011361;28;20242;-65
2023/05/29 09:39:47;;;;;;;0.70;0.57;;;25.30;91.60;;;;;;5013879;28;20729;-65
2023/05/29 09:42:15;;;;;;;0.70;0.50;;;25.30;91.30;;;;;;5019206;28;20242;-65
2023/05/29 09:44:46;;;;;;;0.68;0.50;;;25.00;90.60;;;;;;5010830;28;20275;-63
2023/05/29 09:47:17;;;;;;;1.02;0.93;;;25.20;91.20;;;;;;5011090;28;20326;-64
2023/05/29 09:49:46;;;;;;;0.60;0.50;;;25.30;91.70;;;;;;5011036;28;20240;-65
2023/05/29 09:52:15;;;;;;;0.70;0.60;;;25.50;91.60;;;;;;5010936;28;20224;-64
2023/05/29 09:54:46;;;;;;;1.98;0.57;;;25.50;89.60;;;;;;5018631;28;20295;-64
2023/05/29 09:57:15;;;;;;;0.60;0.40;;;25.70;88.20;;;;;;5020570;28;20228;-64
2023/05/29 09:59:48;;;;;;;0.88;0.50;;;25.80;90.40;;;;;;5022481;28;20207;-64
2023/05/29 10:02:16;;;;;;;1.58;0.60;;;26.00;91.00;;;;;;5014815;28;20209;-65
2023/05/29 10:04:44;;;;;;;0.60;0.43;;;26.10;90.00;;;;;;5010761;28;20226;-64
2023/05/29 10:07:21;;;;;;;0.60;0.50;;;26.30;89.70;;;;;;5017634;28;20239;-65
2023/05/29 10:09:53;;;;;;;0.77;0.57;;;26.00;89.10;;;;;;5014703;28;20215;-64
2023/05/29 10:12:22;;;;;;;1.10;0.90;;;25.90;90.20;;;;;;5013701;28;20236;-64
2023/05/29 10:14:57;;;;;;;0.80;0.60;;;26.00;90.40;;;;;;5012914;28;20683;-64
2023/05/29 10:17:29;;;;;;;0.60;0.40;;;26.20;90.90;;;;;;5011076;28;20335;-64
2023/05/29 10:20:02;;;;;;;0.93;0.80;;;26.60;89.80;;;;;;5010757;28;20216;-64
2023/05/29 10:22:32;;;;;;;0.70;0.60;;;26.60;89.50;;;;;;5014133;28;20576;-64
2023/05/29 10:25:01;;;;;;;0.85;0.60;;;26.30;88.50;;;;;;5010435;28;20216;-64
2023/05/29 10:27:29;;;;;;;0.60;0.60;;;26.40;89.20;;;;;;5013560;28;20702;-64
2023/05/29 10:30:05;;;;;;;0.70;0.70;;;26.40;90.30;;;;;;5025538;28;20582;-64
2023/05/29 10:32:41;;;;;;;0.90;0.65;;;26.50;89.90;;;;;;5010412;28;20221;-64
2023/05/29 10:35:15;;;;;;;0.70;0.63;;;26.50;90.30;;;;;;5016933;28;20241;-64
2023/05/29 10:37:46;;;;;;;0.88;0.88;;;26.30;86.00;;;;;;5010463;28;20229;-64
2023/05/29 10:40:14;;;;;;;0.70;0.68;;;26.40;87.10;;;;;;5010480;28;20260;-64
2023/05/29 10:42:44;;;;;;;1.00;0.90;;;26.60;87.50;;;;;;5010437;28;20206;-64
2023/05/29 10:45:52;;;;;;;0.60;0.40;;;26.70;87.40;;;;;;5010211;28;20208;-63
2023/05/29 10:48:42;;;;;;;0.70;0.60;;;26.70;88.70;;;;;;4952351;28;20308;-64
2023/05/29 10:51:26;;;;;;;0.70;0.60;;;26.70;88.50;;;;;;4949780;28;20223;-64
2023/05/29 10:53:54;;;;;;;1.67;0.90;;;27.00;85.20;;;;;;4994118;28;20228;-63
2023/05/29 10:56:26;;;;;;;0.68;0.65;;;27.00;86.30;;;;;;5028295;28;20223;-63
2023/05/29 10:58:57;;;;;;;0.75;0.60;;;27.10;85.60;;;;;;5025103;28;20220;-64
2023/05/29 11:01:29;;;;;;;0.60;0.50;;;27.20;84.30;;;;;;5020813;28;20209;-64
2023/05/29 11:04:31;;;;;;;0.95;0.80;;;27.50;84.40;;;;;;5010186;28;20209;-63
2023/05/29 11:07:03;;;;;;;0.82;0.63;;;27.50;82.60;;;;;;5005323;28;20236;-64
2023/05/29 11:09:34;;;;;;;0.80;0.65;;;27.40;83.30;;;;;;5018605;28;20205;-64
2023/05/29 11:12:13;;;;;;;1.48;0.80;;;27.40;82.70;;;;;;5010339;28;20307;-63
2023/05/29 11:14:46;;;;;;;0.80;0.60;;;27.30;80.60;;;;;;5022166;28;20200;-64
2023/05/29 11:17:32;;;;;;;0.60;0.50;;;27.50;80.20;;;;;;5010138;28;20626;-64
2023/05/29 11:20:05;;;;;;;0.80;0.70;;;27.60;79.10;;;;;;5013742;28;20211;-64
2023/05/29 11:22:58;;;;;;;0.85;0.60;;;27.80;80.20;;;;;;5013174;28;20240;-63
2023/05/29 11:25:27;;;;;;;0.80;0.50;;;27.80;80.00;;;;;;5007780;28;20233;-63
2023/05/29 11:27:55;;;;;;;0.60;0.50;;;27.40;79.30;;;;;;5025271;28;20229;-64
2023/05/29 11:30:23;;;;;;;0.85;0.70;;;27.20;80.30;;;;;;5021539;28;20209;-64
2023/05/29 11:32:54;;;;;;;1.88;0.70;;;27.50;81.60;;;;;;5010177;28;20225;-63
2023/05/29 11:35:23;;;;;;;1.25;0.60;;;27.50;80.20;;;;;;5016059;28;20288;-64
2023/05/29 11:37:51;;;;;;;0.60;0.40;;;27.60;83.20;;;;;;5013461;28;20232;-63
2023/05/29 11:40:19;;;;;;;0.60;0.50;;;27.40;81.40;;;;;;5016760;28;20216;-64
2023/05/29 11:42:48;;;;;;;0.70;0.50;;;27.50;82.60;;;;;;5013343;28;20726;-64
2023/05/29 11:45:19;;;;;;;1.42;0.70;;;27.50;81.40;;;;;;5020266;28;20232;-63
2023/05/29 11:47:57;;;;;;;0.90;0.45;;;27.20;82.00;;;;;;5013158;28;20230;-64
2023/05/29 11:50:27;;;;;;;1.00;0.90;;;27.70;83.80;;;;;;5013360;28;20575;-63
2023/05/29 11:52:56;;;;;;;0.70;0.47;;;27.50;81.50;;;;;;5014155;28;20225;-64
2023/05/29 11:55:26;;;;;;;1.02;0.80;;;27.50;82.00;;;;;;5016615;28;20212;-64
2023/05/29 11:57:58;;;;;;;0.60;0.45;;;27.40;81.90;;;;;;5015807;28;20228;-63
2023/05/29 12:00:30;;;;;;;0.80;0.77;;;27.50;83.70;;;;;;5029407;28;20703;-63
2023/05/29 12:03:03;;;;;;;0.60;0.40;;;27.50;80.90;;;;;;5013227;28;20220;-63
2023/05/29 12:05:32;;;;;;;1.20;0.60;;;27.50;80.60;;;;;;5012453;28;20259;-63
2023/05/29 12:08:01;;;;;;;0.68;0.50;;;27.40;80.80;;;;;;5013168;28;20557;-63
2023/05/29 12:10:30;;;;;;;1.13;0.85;;;27.60;80.50;;;;;;5012863;28;20213;-63
2023/05/29 12:13:00;;;;;;;1.00;0.80;;;28.00;82.50;;;;;;5016336;28;20618;-64
2023/05/29 12:15:29;;;;;;;1.52;0.60;;;28.00;80.20;;;;;;5012542;28;20668;-64
2023/05/29 12:17:57;;;;;;;0.73;0.73;;;27.80;80.60;;;;;;5012371;28;20271;-64
2023/05/29 12:20:27;;;;;;;0.60;0.50;;;27.80;82.10;;;;;;5012781;28;20558;-64
2023/05/29 12:23:01;;;;;;;1.40;0.80;;;28.10;84.00;;;;;;5018806;28;20673;-64
2023/05/29 12:25:29;;;;;;;0.90;0.90;;;28.20;80.10;;;;;;5020417;28;20569;-64
2023/05/29 12:27:58;;;;;;;0.80;0.57;;;28.40;79.70;;;;;;5019923;28;20557;-64
2023/05/29 12:30:26;;;;;;;0.70;0.60;;;28.70;78.60;;;;;;5028102;28;20227;-64
2023/05/29 12:33:01;;;;;;;1.17;1.05;;;29.40;81.30;;;;;;5012262;28;20263;-63
2023/05/29 12:35:31;;;;;;;1.50;0.57;;;29.50;78.50;;;;;;5012044;28;20209;-64
2023/05/29 12:38:00;;;;;;;0.70;0.50;;;29.10;79.80;;;;;;5020683;28;20201;-64
2023/05/29 12:40:30;;;;;;;1.30;1.20;;;28.80;79.90;;;;;;5012267;28;20197;-64
2023/05/29 12:42:59;;;;;;;1.73;0.85;;;29.00;80.40;;;;;;5012184;28;20204;-64
2023/05/29 12:45:28;;;;;;;0.63;0.50;;;29.10;77.80;;;;;;5016189;28;20677;-64
2023/05/29 12:47:58;;;;;;;0.70;0.50;;;28.70;78.60;;;;;;5012789;28;20233;-64
2023/05/29 12:50:27;;;;;;;0.80;0.60;;;28.70;76.50;;;;;;5022873;28;20200;-64
2023/05/29 12:53:01;;;;;;;0.60;0.60;;;28.70;79.20;;;;;;5012290;28;20244;-64
2023/05/29 12:55:33;;;;;;;0.80;0.70;;;29.00;78.80;;;;;;5011897;28;20208;-65
2023/05/29 12:58:01;;;;;;;0.93;0.50;;;29.00;78.40;;;;;;5019849;28;20208;-64
2023/05/29 13:00:30;;;;;;;0.80;0.80;;;29.10;77.60;;;;;;5023091;28;20294;-64